Bardstown, Kentucky
Current Conditions -  °F | °C
As of 3:15 PM on Monday 24 Nov 2014 (Local Time) from K6I2 Reporting Station
Few Clouds Few Clouds  
Wind Chill: 52°   Ceiling: Unl
Heat Index: 52°   Visibility: 10mi
Dew Point: 39°   Wind: 15mph
Humidity: 62%   Direction: 330°NNW
Pressure: 29.76"   Gusts: 21mph
Location:  37.81°N, 85.47°W
Report Text: K6I2 242015Z AUTO 33013G18KT 170V360 10SM FEW038 11/04 A2976 RMK AO2
Loading
Personal Weather Stations






























Interactive Weather Map New forecast layout! Learn more

10-Day Weather Forecast

Advertisements
Track Severe Weather on mobile